sensor_id;sensor_type;location;lat;lon;timestamp;pressure;altitude;pressure_sealevel;temperature;humidity
69911;BME280;63555;49.920;17.868;2023-07-31T00:04:09;98316.97;;;15.03;100.00
69911;BME280;63555;49.920;17.868;2023-07-31T00:09:10;98324.09;;;15.02;100.00
69911;BME280;63555;49.920;17.868;2023-07-31T00:14:10;98318.25;;;14.98;100.00
69911;BME280;63555;49.920;17.868;2023-07-31T00:19:10;98318.94;;;15.01;100.00
69911;BME280;63555;49.920;17.868;2023-07-31T00:24:11;98316.59;;;14.97;100.00
69911;BME280;63555;49.920;17.868;2023-07-31T00:29:11;98317.81;;;14.85;100.00
69911;BME280;63555;49.920;17.868;2023-07-31T00:34:12;98342.06;;;14.73;100.00
69911;BME280;63555;49.920;17.868;2023-07-31T00:39:12;98342.59;;;14.58;99.62
69911;BME280;63555;49.920;17.868;2023-07-31T00:44:12;98344.13;;;14.43;98.25
69911;BME280;63555;49.920;17.868;2023-07-31T00:49:13;98341.78;;;14.30;97.49
69911;BME280;63555;49.920;17.868;2023-07-31T00:54:13;98348.59;;;14.15;96.57
69911;BME280;63555;49.920;17.868;2023-07-31T00:59:14;98335.53;;;14.04;96.99
69911;BME280;63555;49.920;17.868;2023-07-31T01:04:16;98331.53;;;14.00;97.16
69911;BME280;63555;49.920;17.868;2023-07-31T01:14:50;98335.75;;;13.93;97.66
69911;BME280;63555;49.920;17.868;2023-07-31T01:19:51;98342.03;;;13.92;97.63
69911;BME280;63555;49.920;17.868;2023-07-31T01:30:21;98344.41;;;13.85;97.30
69911;BME280;63555;49.920;17.868;2023-07-31T01:35:24;98344.16;;;13.79;97.08
69911;BME280;63555;49.920;17.868;2023-07-31T01:40:25;98350.56;;;13.76;97.24
69911;BME280;63555;49.920;17.868;2023-07-31T01:45:25;98348.63;;;13.78;97.66
69911;BME280;63555;49.920;17.868;2023-07-31T01:50:26;98339.00;;;13.77;97.86
69911;BME280;63555;49.920;17.868;2023-07-31T01:55:27;98352.25;;;13.77;97.74
69911;BME280;63555;49.920;17.868;2023-07-31T02:00:27;98357.00;;;13.74;97.69
69911;BME280;63555;49.920;17.868;2023-07-31T02:05:27;98369.41;;;13.73;98.14
69911;BME280;63555;49.920;17.868;2023-07-31T02:10:28;98374.69;;;13.83;99.22
69911;BME280;63555;49.920;17.868;2023-07-31T02:15:28;98372.03;;;13.92;99.45
69911;BME280;63555;49.920;17.868;2023-07-31T02:20:28;98391.66;;;13.99;99.82
69911;BME280;63555;49.920;17.868;2023-07-31T02:25:29;98402.13;;;14.01;99.87
69911;BME280;63555;49.920;17.868;2023-07-31T02:30:30;98407.81;;;14.06;100.00
69911;BME280;63555;49.920;17.868;2023-07-31T02:35:30;98400.78;;;14.15;100.00
69911;BME280;63555;49.920;17.868;2023-07-31T02:40:31;98409.84;;;14.22;100.00
69911;BME280;63555;49.920;17.868;2023-07-31T02:45:31;98417.88;;;14.30;100.00
69911;BME280;63555;49.920;17.868;2023-07-31T02:50:32;98410.72;;;14.40;100.00
69911;BME280;63555;49.920;17.868;2023-07-31T02:55:32;98425.91;;;14.48;100.00
69911;BME280;63555;49.920;17.868;2023-07-31T03:00:33;98420.69;;;14.56;100.00
69911;BME280;63555;49.920;17.868;2023-07-31T03:05:36;98417.13;;;14.65;100.00
69911;BME280;63555;49.920;17.868;2023-07-31T03:10:36;98430.78;;;14.70;100.00
69911;BME280;63555;49.920;17.868;2023-07-31T03:15:37;98427.84;;;14.73;100.00
69911;BME280;63555;49.920;17.868;2023-07-31T03:20:42;98428.25;;;14.78;100.00
69911;BME280;63555;49.920;17.868;2023-07-31T03:25:58;98435.09;;;14.81;100.00
69911;BME280;63555;49.920;17.868;2023-07-31T03:30:59;98430.06;;;14.78;100.00
69911;BME280;63555;49.920;17.868;2023-07-31T03:36:00;98423.78;;;14.79;100.00
69911;BME280;63555;49.920;17.868;2023-07-31T03:41:00;98428.25;;;14.78;100.00
69911;BME280;63555;49.920;17.868;2023-07-31T03:46:01;98428.25;;;14.78;100.00
69911;BME280;63555;49.920;17.868;2023-07-31T03:51:01;98431.22;;;14.75;100.00
69911;BME280;63555;49.920;17.868;2023-07-31T03:56:01;98430.09;;;14.68;100.00
69911;BME280;63555;49.920;17.868;2023-07-31T04:01:02;98430.56;;;14.63;100.00
69911;BME280;63555;49.920;17.868;2023-07-31T04:06:03;98440.63;;;14.60;100.00
69911;BME280;63555;49.920;17.868;2023-07-31T04:11:03;98444.13;;;14.60;100.00
69911;BME280;63555;49.920;17.868;2023-07-31T04:16:04;98442.00;;;14.64;100.00
69911;BME280;63555;49.920;17.868;2023-07-31T04:21:04;98434.44;;;14.69;100.00
69911;BME280;63555;49.920;17.868;2023-07-31T04:26:04;98438.19;;;14.76;100.00
69911;BME280;63555;49.920;17.868;2023-07-31T04:31:05;98421.81;;;14.81;100.00
69911;BME280;63555;49.920;17.868;2023-07-31T04:36:05;98429.84;;;14.89;100.00
69911;BME280;63555;49.920;17.868;2023-07-31T04:41:06;98429.41;;;14.93;100.00
69911;BME280;63555;49.920;17.868;2023-07-31T04:46:06;98437.28;;;15.03;100.00
69911;BME280;63555;49.920;17.868;2023-07-31T04:51:07;98439.03;;;15.12;100.00
69911;BME280;63555;49.920;17.868;2023-07-31T04:56:07;98431.03;;;15.30;100.00
69911;BME280;63555;49.920;17.868;2023-07-31T05:01:08;98431.53;;;15.51;100.00
69911;BME280;63555;49.920;17.868;2023-07-31T05:06:08;98436.88;;;15.69;100.00
69911;BME280;63555;49.920;17.868;2023-07-31T05:11:08;98435.47;;;15.83;100.00
69911;BME280;63555;49.920;17.868;2023-07-31T05:16:09;98439.25;;;16.06;100.00
69911;BME280;63555;49.920;17.868;2023-07-31T05:21:09;98442.19;;;16.29;100.00
69911;BME280;63555;49.920;17.868;2023-07-31T05:26:10;98443.91;;;16.46;99.94
69911;BME280;63555;49.920;17.868;2023-07-31T05:31:10;98453.13;;;16.60;99.36
69911;BME280;63555;49.920;17.868;2023-07-31T05:36:11;98455.72;;;16.78;99.22
69911;BME280;63555;49.920;17.868;2023-07-31T05:41:12;98459.91;;;16.88;98.19
69911;BME280;63555;49.920;17.868;2023-07-31T05:46:13;98464.91;;;17.00;97.84
69911;BME280;63555;49.920;17.868;2023-07-31T05:51:13;98465.09;;;17.14;97.44
69911;BME280;63555;49.920;17.868;2023-07-31T05:56:13;98461.31;;;17.41;97.45
69911;BME280;63555;49.920;17.868;2023-07-31T06:01:15;98460.47;;;17.81;97.00
69911;BME280;63555;49.920;17.868;2023-07-31T06:06:16;98455.06;;;18.14;96.01
69911;BME280;63555;49.920;17.868;2023-07-31T06:11:16;98468.19;;;18.40;95.00
69911;BME280;63555;49.920;17.868;2023-07-31T06:16:16;98458.63;;;18.62;93.86
69911;BME280;63555;49.920;17.868;2023-07-31T06:21:17;98461.84;;;18.80;92.71
69911;BME280;63555;49.920;17.868;2023-07-31T06:26:18;98458.13;;;18.89;91.17
69911;BME280;63555;49.920;17.868;2023-07-31T06:31:18;98464.75;;;19.01;90.92
69911;BME280;63555;49.920;17.868;2023-07-31T06:36:22;98466.75;;;19.30;90.16
69911;BME280;63555;49.920;17.868;2023-07-31T06:41:23;98465.59;;;19.48;88.56
69911;BME280;63555;49.920;17.868;2023-07-31T06:46:23;98469.41;;;19.76;87.25
69911;BME280;63555;49.920;17.868;2023-07-31T06:51:24;98469.03;;;20.46;85.77
69911;BME280;63555;49.920;17.868;2023-07-31T06:56:24;98470.13;;;20.81;81.86
69911;BME280;63555;49.920;17.868;2023-07-31T07:01:26;98473.41;;;20.98;79.76
69911;BME280;63555;49.920;17.868;2023-07-31T07:06:27;98468.09;;;21.41;77.84
69911;BME280;63555;49.920;17.868;2023-07-31T07:11:28;98477.88;;;21.48;76.19
69911;BME280;63555;49.920;17.868;2023-07-31T07:16:28;98477.06;;;21.97;74.65
69911;BME280;63555;49.920;17.868;2023-07-31T07:21:29;98469.66;;;23.23;71.34
69911;BME280;63555;49.920;17.868;2023-07-31T07:26:29;98464.53;;;24.53;66.96
69911;BME280;63555;49.920;17.868;2023-07-31T07:31:30;98457.16;;;25.56;63.33
69911;BME280;63555;49.920;17.868;2023-07-31T07:36:31;98463.06;;;27.01;59.55
69911;BME280;63555;49.920;17.868;2023-07-31T07:41:32;98467.34;;;27.50;53.53
69911;BME280;63555;49.920;17.868;2023-07-31T07:46:33;98467.94;;;27.94;50.79
69911;BME280;63555;49.920;17.868;2023-07-31T07:51:33;98459.53;;;28.77;47.40
69911;BME280;63555;49.920;17.868;2023-07-31T07:56:33;98453.75;;;29.14;44.99
69911;BME280;63555;49.920;17.868;2023-07-31T08:01:36;98444.50;;;28.98;43.84
69911;BME280;63555;49.920;17.868;2023-07-31T08:06:36;98440.38;;;29.86;42.01
69911;BME280;63555;49.920;17.868;2023-07-31T08:11:37;98440.72;;;30.06;40.44
69911;BME280;63555;49.920;17.868;2023-07-31T08:16:38;98438.16;;;29.66;40.37
69911;BME280;63555;49.920;17.868;2023-07-31T08:21:39;98440.22;;;30.09;39.34
69911;BME280;63555;49.920;17.868;2023-07-31T08:26:40;98443.72;;;31.09;37.39
69911;BME280;63555;49.920;17.868;2023-07-31T08:31:40;98433.56;;;31.85;36.17
69911;BME280;63555;49.920;17.868;2023-07-31T08:36:41;98444.25;;;32.24;34.95
69911;BME280;63555;49.920;17.868;2023-07-31T08:41:41;98437.41;;;32.74;33.30
69911;BME280;63555;49.920;17.868;2023-07-31T08:46:42;98434.06;;;33.29;32.09
69911;BME280;63555;49.920;17.868;2023-07-31T08:51:42;98427.53;;;33.55;31.07
69911;BME280;63555;49.920;17.868;2023-07-31T08:56:44;98419.03;;;34.23;29.63
69911;BME280;63555;49.920;17.868;2023-07-31T09:01:50;98411.44;;;34.90;28.65
69911;BME280;63555;49.920;17.868;2023-07-31T09:06:57;98412.09;;;34.61;28.12
69911;BME280;63555;49.920;17.868;2023-07-31T09:12:00;98404.84;;;33.40;28.71
69911;BME280;63555;49.920;17.868;2023-07-31T09:17:01;98410.53;;;34.40;27.88
69911;BME280;63555;49.920;17.868;2023-07-31T09:22:01;98405.53;;;35.17;27.54
69911;BME280;63555;49.920;17.868;2023-07-31T09:27:02;98417.31;;;35.95;26.20
69911;BME280;63555;49.920;17.868;2023-07-31T09:32:02;98410.69;;;36.25;25.42
69911;BME280;63555;49.920;17.868;2023-07-31T09:37:04;98402.53;;;35.52;26.44
69911;BME280;63555;49.920;17.868;2023-07-31T09:42:05;98401.94;;;34.72;26.85
69911;BME280;63555;49.920;17.868;2023-07-31T09:47:05;98404.28;;;34.99;27.10
69911;BME280;63555;49.920;17.868;2023-07-31T09:52:11;98402.00;;;35.50;26.05
69911;BME280;63555;49.920;17.868;2023-07-31T09:57:12;98399.69;;;35.33;25.74
69911;BME280;63555;49.920;17.868;2023-07-31T10:02:15;98390.78;;;34.48;26.25
69911;BME280;63555;49.920;17.868;2023-07-31T10:07:21;98387.59;;;34.05;27.18
69911;BME280;63555;49.920;17.868;2023-07-31T10:12:26;98383.66;;;34.47;26.52
69911;BME280;63555;49.920;17.868;2023-07-31T10:17:30;98366.19;;;34.97;25.82
69911;BME280;63555;49.920;17.868;2023-07-31T10:22:31;98376.94;;;35.67;25.19
69911;BME280;63555;49.920;17.868;2023-07-31T10:27:35;98385.69;;;35.69;24.69
69911;BME280;63555;49.920;17.868;2023-07-31T10:32:36;98373.25;;;35.82;24.56
69911;BME280;63555;49.920;17.868;2023-07-31T10:37:39;98370.69;;;35.61;24.11
69911;BME280;63555;49.920;17.868;2023-07-31T10:42:56;98361.16;;;35.49;24.69
69911;BME280;63555;49.920;17.868;2023-07-31T10:48:02;98365.50;;;34.61;25.27
69911;BME280;63555;49.920;17.868;2023-07-31T10:53:03;98354.41;;;34.32;25.34
69911;BME280;63555;49.920;17.868;2023-07-31T10:58:11;98363.19;;;34.94;25.04
69911;BME280;63555;49.920;17.868;2023-07-31T11:03:19;98372.56;;;33.62;25.64
69911;BME280;63555;49.920;17.868;2023-07-31T11:08:28;98357.66;;;31.72;27.91
69911;BME280;63555;49.920;17.868;2023-07-31T11:13:44;98346.84;;;31.50;29.40
69911;BME280;63555;49.920;17.868;2023-07-31T11:18:47;98347.16;;;33.87;27.05
69911;BME280;63555;49.920;17.868;2023-07-31T11:23:50;98349.31;;;35.53;25.54
69911;BME280;63555;49.920;17.868;2023-07-31T11:28:51;98353.19;;;36.58;24.13
69911;BME280;63555;49.920;17.868;2023-07-31T11:34:04;98340.56;;;36.09;24.12
69911;BME280;63555;49.920;17.868;2023-07-31T11:39:08;98340.50;;;34.13;25.29
69911;BME280;63555;49.920;17.868;2023-07-31T11:44:09;98343.28;;;33.78;26.38
69911;BME280;63555;49.920;17.868;2023-07-31T11:49:09;98327.94;;;34.72;25.16
69911;BME280;63555;49.920;17.868;2023-07-31T11:54:10;98331.31;;;34.54;25.35
69911;BME280;63555;49.920;17.868;2023-07-31T11:59:13;98321.69;;;33.71;25.82
69911;BME280;63555;49.920;17.868;2023-07-31T12:04:13;98319.47;;;33.78;25.58
69911;BME280;63555;49.920;17.868;2023-07-31T12:09:14;98312.00;;;34.84;24.92
69911;BME280;63555;49.920;17.868;2023-07-31T12:14:24;98301.25;;;35.90;24.73
69911;BME280;63555;49.920;17.868;2023-07-31T12:19:27;98298.41;;;36.00;24.15
69911;BME280;63555;49.920;17.868;2023-07-31T12:24:29;98294.19;;;35.84;24.38
69911;BME280;63555;49.920;17.868;2023-07-31T12:29:38;98281.59;;;35.49;25.78
69911;BME280;63555;49.920;17.868;2023-07-31T12:34:42;98272.13;;;35.94;24.26
69911;BME280;63555;49.920;17.868;2023-07-31T12:39:43;98278.50;;;33.53;26.28
69911;BME280;63555;49.920;17.868;2023-07-31T12:44:44;98267.00;;;31.55;28.85
69911;BME280;63555;49.920;17.868;2023-07-31T12:49:44;98264.97;;;29.45;31.19
69911;BME280;63555;49.920;17.868;2023-07-31T12:54:44;98257.50;;;28.16;33.37
69911;BME280;63555;49.920;17.868;2023-07-31T12:59:45;98255.25;;;27.62;34.12
69911;BME280;63555;49.920;17.868;2023-07-31T13:04:45;98245.09;;;27.45;34.48
69911;BME280;63555;49.920;17.868;2023-07-31T13:09:45;98248.41;;;27.47;34.48
69911;BME280;63555;49.920;17.868;2023-07-31T13:14:46;98240.63;;;27.51;34.27
69911;BME280;63555;49.920;17.868;2023-07-31T13:19:46;98235.00;;;27.17;34.80
69911;BME280;63555;49.920;17.868;2023-07-31T13:24:47;98233.66;;;26.96;35.48
69911;BME280;63555;49.920;17.868;2023-07-31T13:29:48;98230.75;;;27.10;35.52
69911;BME280;63555;49.920;17.868;2023-07-31T13:34:49;98223.44;;;27.45;35.13
69911;BME280;63555;49.920;17.868;2023-07-31T13:39:50;98214.59;;;28.13;34.29
69911;BME280;63555;49.920;17.868;2023-07-31T13:44:50;98209.34;;;29.91;31.53
69911;BME280;63555;49.920;17.868;2023-07-31T13:49:50;98200.31;;;32.55;29.22
69911;BME280;63555;49.920;17.868;2023-07-31T13:54:51;98211.38;;;34.01;27.45
69911;BME280;63555;49.920;17.868;2023-07-31T13:59:51;98211.50;;;32.34;28.71
69911;BME280;63555;49.920;17.868;2023-07-31T14:04:52;98210.53;;;30.00;31.83
69911;BME280;63555;49.920;17.868;2023-07-31T14:09:52;98213.03;;;29.08;33.86
69911;BME280;63555;49.920;17.868;2023-07-31T14:14:52;98209.25;;;28.30;34.67
69911;BME280;63555;49.920;17.868;2023-07-31T14:19:53;98201.75;;;27.80;35.10
69911;BME280;63555;49.920;17.868;2023-07-31T14:24:55;98189.41;;;27.49;35.88
69911;BME280;63555;49.920;17.868;2023-07-31T14:29:56;98198.16;;;27.28;36.63
69911;BME280;63555;49.920;17.868;2023-07-31T14:34:56;98193.22;;;27.25;36.45
69911;BME280;63555;49.920;17.868;2023-07-31T14:39:56;98199.84;;;26.87;36.58
69911;BME280;63555;49.920;17.868;2023-07-31T14:44:57;98191.16;;;26.32;37.57
69911;BME280;63555;49.920;17.868;2023-07-31T14:49:58;98192.97;;;25.90;38.31
69911;BME280;63555;49.920;17.868;2023-07-31T14:54:58;98186.53;;;25.36;39.54
69911;BME280;63555;49.920;17.868;2023-07-31T14:59:58;98178.00;;;25.14;39.83
69911;BME280;63555;49.920;17.868;2023-07-31T15:04:59;98180.88;;;24.94;40.51
69911;BME280;63555;49.920;17.868;2023-07-31T15:10:00;98178.75;;;24.78;40.66
69911;BME280;63555;49.920;17.868;2023-07-31T15:15:00;98170.09;;;24.69;41.26
69911;BME280;63555;49.920;17.868;2023-07-31T15:20:01;98175.88;;;24.73;41.47
69911;BME280;63555;49.920;17.868;2023-07-31T15:25:01;98174.63;;;24.75;41.64
69911;BME280;63555;49.920;17.868;2023-07-31T15:30:04;98170.75;;;24.65;42.15
69911;BME280;63555;49.920;17.868;2023-07-31T15:35:06;98154.09;;;24.50;42.64
69911;BME280;63555;49.920;17.868;2023-07-31T15:40:07;98151.94;;;24.58;42.92
69911;BME280;63555;49.920;17.868;2023-07-31T15:45:08;98150.06;;;24.84;41.72
69911;BME280;63555;49.920;17.868;2023-07-31T15:50:10;98146.13;;;25.04;41.24
69911;BME280;63555;49.920;17.868;2023-07-31T15:55:10;98140.19;;;25.21;40.89
69911;BME280;63555;49.920;17.868;2023-07-31T16:00:11;98120.72;;;26.27;39.43
69911;BME280;63555;49.920;17.868;2023-07-31T16:05:11;98123.50;;;27.84;36.48
69911;BME280;63555;49.920;17.868;2023-07-31T16:10:12;98125.06;;;27.56;36.83
69911;BME280;63555;49.920;17.868;2023-07-31T16:15:12;98124.44;;;26.67;37.96
69911;BME280;63555;49.920;17.868;2023-07-31T16:20:13;98108.72;;;26.23;38.97
69911;BME280;63555;49.920;17.868;2023-07-31T16:25:13;98103.03;;;26.01;39.16
69911;BME280;63555;49.920;17.868;2023-07-31T16:30:13;98105.50;;;25.73;40.22
69911;BME280;63555;49.920;17.868;2023-07-31T16:35:14;98091.94;;;25.43;40.04
69911;BME280;63555;49.920;17.868;2023-07-31T16:40:14;98094.44;;;25.07;41.02
69911;BME280;63555;49.920;17.868;2023-07-31T16:45:15;98088.63;;;24.86;41.35
69911;BME280;63555;49.920;17.868;2023-07-31T16:50:15;98083.22;;;24.67;41.31
69911;BME280;63555;49.920;17.868;2023-07-31T16:55:16;98083.22;;;24.42;41.59
69911;BME280;63555;49.920;17.868;2023-07-31T17:00:17;98089.00;;;24.14;42.38
69911;BME280;63555;49.920;17.868;2023-07-31T17:05:18;98083.72;;;24.01;43.51
69911;BME280;63555;49.920;17.868;2023-07-31T17:10:18;98088.16;;;23.89;43.79
69911;BME280;63555;49.920;17.868;2023-07-31T17:15:19;98077.06;;;23.72;43.63
69911;BME280;63555;49.920;17.868;2023-07-31T17:20:19;98075.94;;;23.55;44.63
69911;BME280;63555;49.920;17.868;2023-07-31T17:25:20;98069.94;;;23.40;44.92
69911;BME280;63555;49.920;17.868;2023-07-31T17:30:20;98065.09;;;23.17;45.12
69911;BME280;63555;49.920;17.868;2023-07-31T17:35:20;98073.47;;;22.89;45.99
69911;BME280;63555;49.920;17.868;2023-07-31T17:40:21;98072.47;;;22.64;46.42
69911;BME280;63555;49.920;17.868;2023-07-31T17:45:21;98077.22;;;22.42;46.95
69911;BME280;63555;49.920;17.868;2023-07-31T17:50:21;98078.66;;;22.18;46.89
69911;BME280;63555;49.920;17.868;2023-07-31T17:55:22;98085.44;;;21.87;48.71
69911;BME280;63555;49.920;17.868;2023-07-31T18:00:22;98079.53;;;21.44;50.68
69911;BME280;63555;49.920;17.868;2023-07-31T18:05:22;98080.81;;;21.07;51.98
69911;BME280;63555;49.920;17.868;2023-07-31T18:10:23;98080.59;;;20.74;52.96
69911;BME280;63555;49.920;17.868;2023-07-31T18:15:23;98076.06;;;20.40;53.93
69911;BME280;63555;49.920;17.868;2023-07-31T18:20:23;98075.31;;;20.03;55.39
69911;BME280;63555;49.920;17.868;2023-07-31T18:25:24;98070.47;;;19.71;56.65
69911;BME280;63555;49.920;17.868;2023-07-31T18:30:24;98069.06;;;19.39;57.71
69911;BME280;63555;49.920;17.868;2023-07-31T18:35:25;98067.28;;;19.10;58.54
69911;BME280;63555;49.920;17.868;2023-07-31T18:40:25;98065.81;;;18.78;59.52
69911;BME280;63555;49.920;17.868;2023-07-31T18:45:26;98058.16;;;18.45;60.85
69911;BME280;63555;49.920;17.868;2023-07-31T18:50:26;98059.44;;;18.12;61.84
69911;BME280;63555;49.920;17.868;2023-07-31T18:55:27;98065.72;;;17.81;63.26
69911;BME280;63555;49.920;17.868;2023-07-31T19:00:27;98069.72;;;17.55;64.21
69911;BME280;63555;49.920;17.868;2023-07-31T19:05:27;98075.31;;;17.37;64.81
69911;BME280;63555;49.920;17.868;2023-07-31T19:10:28;98079.72;;;17.22;65.56
69911;BME280;63555;49.920;17.868;2023-07-31T19:15:28;98072.63;;;17.06;66.29
69911;BME280;63555;49.920;17.868;2023-07-31T19:20:29;98070.69;;;16.92;66.90
69911;BME280;63555;49.920;17.868;2023-07-31T19:25:30;98072.06;;;16.79;67.43
69911;BME280;63555;49.920;17.868;2023-07-31T19:30:31;98067.78;;;16.62;68.09
69911;BME280;63555;49.920;17.868;2023-07-31T19:35:31;98063.31;;;16.46;68.59
69911;BME280;63555;49.920;17.868;2023-07-31T19:40:32;98071.31;;;16.30;68.97
69911;BME280;63555;49.920;17.868;2023-07-31T19:45:33;98071.00;;;16.17;69.73
69911;BME280;63555;49.920;17.868;2023-07-31T19:50:34;98059.03;;;16.13;70.25
69911;BME280;63555;49.920;17.868;2023-07-31T19:55:35;98062.69;;;16.20;70.85
69911;BME280;63555;49.920;17.868;2023-07-31T20:00:35;98050.88;;;16.31;70.64
69911;BME280;63555;49.920;17.868;2023-07-31T20:05:35;98052.88;;;16.29;70.58
69911;BME280;63555;49.920;17.868;2023-07-31T20:10:37;98042.25;;;16.20;71.13
69911;BME280;63555;49.920;17.868;2023-07-31T20:15:37;98052.91;;;16.04;71.68
69911;BME280;63555;49.920;17.868;2023-07-31T20:20:37;98046.09;;;15.93;72.03
69911;BME280;63555;49.920;17.868;2023-07-31T20:25:38;98039.78;;;15.86;72.12
69911;BME280;63555;49.920;17.868;2023-07-31T20:30:38;98040.47;;;15.80;72.82
69911;BME280;63555;49.920;17.868;2023-07-31T20:35:39;98043.94;;;15.81;73.31
69911;BME280;63555;49.920;17.868;2023-07-31T20:40:39;98036.63;;;15.83;73.44
69911;BME280;63555;49.920;17.868;2023-07-31T20:45:40;98028.50;;;15.84;73.71
69911;BME280;63555;49.920;17.868;2023-07-31T20:50:42;98013.38;;;15.85;74.04
69911;BME280;63555;49.920;17.868;2023-07-31T20:55:42;98017.50;;;15.96;74.08
69911;BME280;63555;49.920;17.868;2023-07-31T21:00:42;98011.84;;;16.07;74.24
69911;BME280;63555;49.920;17.868;2023-07-31T21:05:53;98005.03;;;16.04;74.09
69911;BME280;63555;49.920;17.868;2023-07-31T21:10:57;98003.56;;;15.93;74.30
69911;BME280;63555;49.920;17.868;2023-07-31T21:15:58;98004.56;;;15.84;74.56
69911;BME280;63555;49.920;17.868;2023-07-31T21:20:59;97999.41;;;15.75;74.90
69911;BME280;63555;49.920;17.868;2023-07-31T21:25:59;97990.78;;;15.65;75.03
69911;BME280;63555;49.920;17.868;2023-07-31T21:31:08;97972.81;;;15.58;75.71
69911;BME280;63555;49.920;17.868;2023-07-31T21:36:08;97974.78;;;15.48;76.05
69911;BME280;63555;49.920;17.868;2023-07-31T21:41:09;97971.97;;;15.42;76.18
69911;BME280;63555;49.920;17.868;2023-07-31T21:46:09;97976.94;;;15.37;76.37
69911;BME280;63555;49.920;17.868;2023-07-31T21:51:10;97974.13;;;15.30;76.60
69911;BME280;63555;49.920;17.868;2023-07-31T21:56:11;97971.78;;;15.27;76.60
69911;BME280;63555;49.920;17.868;2023-07-31T22:01:12;97969.94;;;15.19;76.64
69911;BME280;63555;49.920;17.868;2023-07-31T22:06:14;97963.63;;;15.12;76.92
69911;BME280;63555;49.920;17.868;2023-07-31T22:11:14;97965.44;;;15.04;76.91
69911;BME280;63555;49.920;17.868;2023-07-31T22:16:15;97968.25;;;14.94;77.07
69911;BME280;63555;49.920;17.868;2023-07-31T22:21:17;97960.44;;;14.84;77.03
69911;BME280;63555;49.920;17.868;2023-07-31T22:26:19;97959.44;;;14.77;77.14
69911;BME280;63555;49.920;17.868;2023-07-31T22:31:19;97952.25;;;14.70;77.28
69911;BME280;63555;49.920;17.868;2023-07-31T22:36:20;97940.44;;;14.64;77.29
69911;BME280;63555;49.920;17.868;2023-07-31T22:41:20;97936.09;;;14.55;77.43
69911;BME280;63555;49.920;17.868;2023-07-31T22:46:21;97930.78;;;14.47;77.54
69911;BME280;63555;49.920;17.868;2023-07-31T22:51:21;97932.38;;;14.40;77.58
69911;BME280;63555;49.920;17.868;2023-07-31T22:56:21;97925.91;;;14.34;77.41
69911;BME280;63555;49.920;17.868;2023-07-31T23:01:22;97918.25;;;14.31;77.74
69911;BME280;63555;49.920;17.868;2023-07-31T23:06:24;97920.59;;;14.34;77.91
69911;BME280;63555;49.920;17.868;2023-07-31T23:11:24;97917.22;;;14.58;77.40
69911;BME280;63555;49.920;17.868;2023-07-31T23:16:26;97903.53;;;14.87;76.76
69911;BME280;63555;49.920;17.868;2023-07-31T23:21:27;97902.56;;;15.04;76.06
69911;BME280;63555;49.920;17.868;2023-07-31T23:26:28;97895.91;;;15.16;75.58
69911;BME280;63555;49.920;17.868;2023-07-31T23:31:29;97886.63;;;15.20;75.16
69911;BME280;63555;49.920;17.868;2023-07-31T23:36:29;97882.63;;;15.16;75.31
69911;BME280;63555;49.920;17.868;2023-07-31T23:41:29;97878.66;;;15.12;75.54
69911;BME280;63555;49.920;17.868;2023-07-31T23:46:30;97865.22;;;15.06;75.86
69911;BME280;63555;49.920;17.868;2023-07-31T23:51:30;97858.56;;;15.02;76.13
69911;BME280;63555;49.920;17.868;2023-07-31T23:56:31;97854.75;;;15.04;76.16
